sensor_id;sensor_type;location;lat;lon;timestamp;temperature;humidity
55828;DHT22;41758;51.992;5.890;2023-11-21T00:01:18;13.90;70.50
55828;DHT22;41758;51.992;5.890;2023-11-21T00:03:43;13.90;70.50
55828;DHT22;41758;51.992;5.890;2023-11-21T00:06:09;13.90;70.50
55828;DHT22;41758;51.992;5.890;2023-11-21T00:08:36;13.90;70.50
55828;DHT22;41758;51.992;5.890;2023-11-21T00:11:02;13.80;70.40
55828;DHT22;41758;51.992;5.890;2023-11-21T00:13:28;13.80;70.40
55828;DHT22;41758;51.992;5.890;2023-11-21T00:15:53;13.80;70.40
55828;DHT22;41758;51.992;5.890;2023-11-21T00:18:20;13.80;70.40
55828;DHT22;41758;51.992;5.890;2023-11-21T00:20:46;13.80;70.30
55828;DHT22;41758;51.992;5.890;2023-11-21T00:23:11;13.80;70.30
55828;DHT22;41758;51.992;5.890;2023-11-21T00:25:37;13.70;70.40
55828;DHT22;41758;51.992;5.890;2023-11-21T00:28:03;13.70;70.40
55828;DHT22;41758;51.992;5.890;2023-11-21T00:30:29;13.70;70.40
55828;DHT22;41758;51.992;5.890;2023-11-21T00:32:55;13.70;70.50
55828;DHT22;41758;51.992;5.890;2023-11-21T00:35:21;13.60;70.50
55828;DHT22;41758;51.992;5.890;2023-11-21T00:37:47;13.60;70.60
55828;DHT22;41758;51.992;5.890;2023-11-21T00:40:15;13.60;70.60
55828;DHT22;41758;51.992;5.890;2023-11-21T00:42:41;13.60;70.50
55828;DHT22;41758;51.992;5.890;2023-11-21T00:45:07;13.60;70.50
55828;DHT22;41758;51.992;5.890;2023-11-21T00:47:33;13.60;70.40
55828;DHT22;41758;51.992;5.890;2023-11-21T00:50:00;13.60;70.40
55828;DHT22;41758;51.992;5.890;2023-11-21T00:52:26;13.60;70.40
55828;DHT22;41758;51.992;5.890;2023-11-21T00:54:51;13.50;70.50
55828;DHT22;41758;51.992;5.890;2023-11-21T00:57:17;13.60;70.60
55828;DHT22;41758;51.992;5.890;2023-11-21T00:59:42;13.50;70.60
55828;DHT22;41758;51.992;5.890;2023-11-21T01:02:08;13.60;70.70
55828;DHT22;41758;51.992;5.890;2023-11-21T01:04:36;13.60;70.70
55828;DHT22;41758;51.992;5.890;2023-11-21T01:07:01;13.60;70.80
55828;DHT22;41758;51.992;5.890;2023-11-21T01:09:27;13.70;70.80
55828;DHT22;41758;51.992;5.890;2023-11-21T01:11:53;13.70;70.80
55828;DHT22;41758;51.992;5.890;2023-11-21T01:14:19;13.70;70.80
55828;DHT22;41758;51.992;5.890;2023-11-21T01:16:45;13.70;70.80
55828;DHT22;41758;51.992;5.890;2023-11-21T01:19:11;13.70;70.80
55828;DHT22;41758;51.992;5.890;2023-11-21T01:21:36;13.80;70.80
55828;DHT22;41758;51.992;5.890;2023-11-21T01:24:03;13.80;70.80
55828;DHT22;41758;51.992;5.890;2023-11-21T01:26:29;13.80;70.80
55828;DHT22;41758;51.992;5.890;2023-11-21T01:28:54;13.80;70.80
55828;DHT22;41758;51.992;5.890;2023-11-21T01:31:20;13.90;70.80
55828;DHT22;41758;51.992;5.890;2023-11-21T01:33:46;13.90;70.90
55828;DHT22;41758;51.992;5.890;2023-11-21T01:36:12;13.90;70.90
55828;DHT22;41758;51.992;5.890;2023-11-21T01:38:37;13.90;70.90
55828;DHT22;41758;51.992;5.890;2023-11-21T01:41:04;13.90;70.90
55828;DHT22;41758;51.992;5.890;2023-11-21T01:43:30;14.00;70.90
55828;DHT22;41758;51.992;5.890;2023-11-21T01:45:57;14.00;70.90
55828;DHT22;41758;51.992;5.890;2023-11-21T01:48:24;14.00;70.90
55828;DHT22;41758;51.992;5.890;2023-11-21T01:50:50;14.00;70.80
55828;DHT22;41758;51.992;5.890;2023-11-21T01:53:16;14.00;70.80
55828;DHT22;41758;51.992;5.890;2023-11-21T01:55:45;14.00;70.80
55828;DHT22;41758;51.992;5.890;2023-11-21T01:58:11;14.00;70.70
55828;DHT22;41758;51.992;5.890;2023-11-21T02:00:38;14.00;70.70
55828;DHT22;41758;51.992;5.890;2023-11-21T02:03:04;14.00;70.70
55828;DHT22;41758;51.992;5.890;2023-11-21T02:05:30;14.00;70.80
55828;DHT22;41758;51.992;5.890;2023-11-21T02:07:57;14.10;70.70
55828;DHT22;41758;51.992;5.890;2023-11-21T02:10:24;14.00;70.70
55828;DHT22;41758;51.992;5.890;2023-11-21T02:12:50;14.10;70.70
55828;DHT22;41758;51.992;5.890;2023-11-21T02:15:17;14.00;70.60
55828;DHT22;41758;51.992;5.890;2023-11-21T02:17:47;14.10;70.60
55828;DHT22;41758;51.992;5.890;2023-11-21T02:20:17;14.10;70.60
55828;DHT22;41758;51.992;5.890;2023-11-21T02:22:56;14.10;70.60
55828;DHT22;41758;51.992;5.890;2023-11-21T02:25:26;14.00;70.50
55828;DHT22;41758;51.992;5.890;2023-11-21T02:27:56;14.00;70.50
55828;DHT22;41758;51.992;5.890;2023-11-21T02:30:22;14.00;70.50
55828;DHT22;41758;51.992;5.890;2023-11-21T02:32:51;14.00;70.50
55828;DHT22;41758;51.992;5.890;2023-11-21T02:35:22;14.00;70.60
55828;DHT22;41758;51.992;5.890;2023-11-21T02:37:48;14.00;70.50
55828;DHT22;41758;51.992;5.890;2023-11-21T02:40:14;14.00;70.50
55828;DHT22;41758;51.992;5.890;2023-11-21T02:42:49;13.90;70.50
55828;DHT22;41758;51.992;5.890;2023-11-21T02:45:20;13.90;70.60
55828;DHT22;41758;51.992;5.890;2023-11-21T02:47:50;13.80;70.60
55828;DHT22;41758;51.992;5.890;2023-11-21T02:50:16;13.80;70.50
55828;DHT22;41758;51.992;5.890;2023-11-21T02:52:45;13.80;70.60
55828;DHT22;41758;51.992;5.890;2023-11-21T02:55:10;13.70;70.70
55828;DHT22;41758;51.992;5.890;2023-11-21T02:57:36;13.70;70.70
55828;DHT22;41758;51.992;5.890;2023-11-21T03:00:02;13.70;70.80
55828;DHT22;41758;51.992;5.890;2023-11-21T03:02:28;13.60;70.90
55828;DHT22;41758;51.992;5.890;2023-11-21T03:04:54;13.70;70.90
55828;DHT22;41758;51.992;5.890;2023-11-21T03:07:20;13.70;71.00
55828;DHT22;41758;51.992;5.890;2023-11-21T03:09:45;13.70;71.00
55828;DHT22;41758;51.992;5.890;2023-11-21T03:12:11;13.70;70.90
55828;DHT22;41758;51.992;5.890;2023-11-21T03:14:38;13.70;70.90
55828;DHT22;41758;51.992;5.890;2023-11-21T03:17:04;13.60;70.90
55828;DHT22;41758;51.992;5.890;2023-11-21T03:19:30;13.70;70.90
55828;DHT22;41758;51.992;5.890;2023-11-21T03:21:56;13.60;70.90
55828;DHT22;41758;51.992;5.890;2023-11-21T03:24:22;13.60;70.90
55828;DHT22;41758;51.992;5.890;2023-11-21T03:26:48;13.60;71.00
55828;DHT22;41758;51.992;5.890;2023-11-21T03:29:14;13.60;71.00
55828;DHT22;41758;51.992;5.890;2023-11-21T03:31:40;13.60;71.10
55828;DHT22;41758;51.992;5.890;2023-11-21T03:34:06;13.70;71.10
55828;DHT22;41758;51.992;5.890;2023-11-21T03:36:32;13.70;71.10
55828;DHT22;41758;51.992;5.890;2023-11-21T03:38:58;13.70;71.10
55828;DHT22;41758;51.992;5.890;2023-11-21T03:41:24;13.70;71.10
55828;DHT22;41758;51.992;5.890;2023-11-21T03:43:49;13.80;71.10
55828;DHT22;41758;51.992;5.890;2023-11-21T03:46:15;13.80;71.10
55828;DHT22;41758;51.992;5.890;2023-11-21T03:48:42;13.80;71.10
55828;DHT22;41758;51.992;5.890;2023-11-21T03:51:07;13.80;71.10
55828;DHT22;41758;51.992;5.890;2023-11-21T03:53:33;13.80;71.10
55828;DHT22;41758;51.992;5.890;2023-11-21T03:56:02;13.90;71.10
55828;DHT22;41758;51.992;5.890;2023-11-21T03:58:29;13.90;71.10
55828;DHT22;41758;51.992;5.890;2023-11-21T04:00:55;14.00;71.00
55828;DHT22;41758;51.992;5.890;2023-11-21T04:03:20;13.90;70.90
55828;DHT22;41758;51.992;5.890;2023-11-21T04:05:46;13.90;70.90
55828;DHT22;41758;51.992;5.890;2023-11-21T04:08:12;13.90;70.90
55828;DHT22;41758;51.992;5.890;2023-11-21T04:10:38;13.80;70.90
55828;DHT22;41758;51.992;5.890;2023-11-21T04:13:05;13.80;70.90
55828;DHT22;41758;51.992;5.890;2023-11-21T04:15:32;13.80;71.00
55828;DHT22;41758;51.992;5.890;2023-11-21T04:17:58;13.80;70.90
55828;DHT22;41758;51.992;5.890;2023-11-21T04:20:24;13.80;71.00
55828;DHT22;41758;51.992;5.890;2023-11-21T04:22:50;13.80;71.10
55828;DHT22;41758;51.992;5.890;2023-11-21T04:25:15;13.80;71.10
55828;DHT22;41758;51.992;5.890;2023-11-21T04:27:43;13.90;71.10
55828;DHT22;41758;51.992;5.890;2023-11-21T04:30:13;13.90;71.10
55828;DHT22;41758;51.992;5.890;2023-11-21T04:32:39;13.90;71.10
55828;DHT22;41758;51.992;5.890;2023-11-21T04:35:05;13.80;70.90
55828;DHT22;41758;51.992;5.890;2023-11-21T04:37:31;13.80;70.90
55828;DHT22;41758;51.992;5.890;2023-11-21T04:39:57;13.80;70.90
55828;DHT22;41758;51.992;5.890;2023-11-21T04:42:22;13.70;70.90
55828;DHT22;41758;51.992;5.890;2023-11-21T04:44:49;13.70;71.00
55828;DHT22;41758;51.992;5.890;2023-11-21T04:47:14;13.70;71.10
55828;DHT22;41758;51.992;5.890;2023-11-21T04:49:43;13.70;71.10
55828;DHT22;41758;51.992;5.890;2023-11-21T04:52:12;13.70;71.00
55828;DHT22;41758;51.992;5.890;2023-11-21T04:54:38;13.60;71.00
55828;DHT22;41758;51.992;5.890;2023-11-21T04:57:05;13.60;71.10
55828;DHT22;41758;51.992;5.890;2023-11-21T04:59:33;13.60;71.20
55828;DHT22;41758;51.992;5.890;2023-11-21T05:01:59;13.60;71.30
55828;DHT22;41758;51.992;5.890;2023-11-21T05:04:26;13.70;71.30
55828;DHT22;41758;51.992;5.890;2023-11-21T05:06:52;13.70;71.30
55828;DHT22;41758;51.992;5.890;2023-11-21T05:09:18;13.70;71.20
55828;DHT22;41758;51.992;5.890;2023-11-21T05:11:43;13.70;71.10
55828;DHT22;41758;51.992;5.890;2023-11-21T05:14:09;13.60;71.00
55828;DHT22;41758;51.992;5.890;2023-11-21T05:16:35;13.60;71.00
55828;DHT22;41758;51.992;5.890;2023-11-21T05:19:01;13.50;70.90
55828;DHT22;41758;51.992;5.890;2023-11-21T05:21:27;13.50;70.90
55828;DHT22;41758;51.992;5.890;2023-11-21T05:23:55;13.40;70.90
55828;DHT22;41758;51.992;5.890;2023-11-21T05:26:20;13.40;71.00
55828;DHT22;41758;51.992;5.890;2023-11-21T05:28:46;13.30;71.10
55828;DHT22;41758;51.992;5.890;2023-11-21T05:31:11;13.30;71.20
55828;DHT22;41758;51.992;5.890;2023-11-21T05:33:38;13.30;71.30
55828;DHT22;41758;51.992;5.890;2023-11-21T05:36:03;13.20;71.30
55828;DHT22;41758;51.992;5.890;2023-11-21T05:38:30;13.20;71.30
55828;DHT22;41758;51.992;5.890;2023-11-21T05:40:55;13.30;71.30
55828;DHT22;41758;51.992;5.890;2023-11-21T05:43:21;13.20;71.50
55828;DHT22;41758;51.992;5.890;2023-11-21T05:45:47;13.20;71.60
55828;DHT22;41758;51.992;5.890;2023-11-21T05:48:12;13.20;71.60
55828;DHT22;41758;51.992;5.890;2023-11-21T05:50:38;13.20;71.50
55828;DHT22;41758;51.992;5.890;2023-11-21T05:53:04;13.20;71.50
55828;DHT22;41758;51.992;5.890;2023-11-21T05:55:30;13.20;71.40
55828;DHT22;41758;51.992;5.890;2023-11-21T05:57:56;13.10;71.40
55828;DHT22;41758;51.992;5.890;2023-11-21T06:00:22;13.10;71.50
55828;DHT22;41758;51.992;5.890;2023-11-21T06:02:49;13.10;71.60
55828;DHT22;41758;51.992;5.890;2023-11-21T06:05:22;13.10;71.70
55828;DHT22;41758;51.992;5.890;2023-11-21T06:07:49;13.20;71.70
55828;DHT22;41758;51.992;5.890;2023-11-21T06:10:15;13.20;71.70
55828;DHT22;41758;51.992;5.890;2023-11-21T06:12:43;13.20;71.70
55828;DHT22;41758;51.992;5.890;2023-11-21T06:15:09;13.20;71.70
55828;DHT22;41758;51.992;5.890;2023-11-21T06:17:39;13.20;71.70
55828;DHT22;41758;51.992;5.890;2023-11-21T06:20:09;13.20;71.70
55828;DHT22;41758;51.992;5.890;2023-11-21T06:25:02;13.20;71.80
55828;DHT22;41758;51.992;5.890;2023-11-21T06:27:30;13.30;71.80
55828;DHT22;41758;51.992;5.890;2023-11-21T06:29:56;13.30;71.80
55828;DHT22;41758;51.992;5.890;2023-11-21T06:32:22;13.30;71.70
55828;DHT22;41758;51.992;5.890;2023-11-21T06:34:48;13.20;71.70
55828;DHT22;41758;51.992;5.890;2023-11-21T06:37:15;13.20;71.80
55828;DHT22;41758;51.992;5.890;2023-11-21T06:39:40;13.20;71.80
55828;DHT22;41758;51.992;5.890;2023-11-21T06:42:07;13.20;71.80
55828;DHT22;41758;51.992;5.890;2023-11-21T06:44:33;13.20;71.90
55828;DHT22;41758;51.992;5.890;2023-11-21T06:47:00;13.20;72.00
55828;DHT22;41758;51.992;5.890;2023-11-21T06:49:26;13.20;72.00
55828;DHT22;41758;51.992;5.890;2023-11-21T06:51:52;13.20;72.00
55828;DHT22;41758;51.992;5.890;2023-11-21T06:54:18;13.30;72.10
55828;DHT22;41758;51.992;5.890;2023-11-21T06:56:44;13.30;72.10
55828;DHT22;41758;51.992;5.890;2023-11-21T06:59:10;13.30;71.90
55828;DHT22;41758;51.992;5.890;2023-11-21T07:01:36;13.30;71.90
55828;DHT22;41758;51.992;5.890;2023-11-21T07:04:05;13.30;72.00
55828;DHT22;41758;51.992;5.890;2023-11-21T07:06:31;13.30;72.00
55828;DHT22;41758;51.992;5.890;2023-11-21T07:08:57;13.30;72.10
55828;DHT22;41758;51.992;5.890;2023-11-21T07:11:24;13.40;71.90
55828;DHT22;41758;51.992;5.890;2023-11-21T07:13:50;13.40;71.90
55828;DHT22;41758;51.992;5.890;2023-11-21T07:16:16;13.40;71.90
55828;DHT22;41758;51.992;5.890;2023-11-21T07:18:42;13.40;72.00
55828;DHT22;41758;51.992;5.890;2023-11-21T07:21:08;13.40;72.10
55828;DHT22;41758;51.992;5.890;2023-11-21T07:23:34;13.50;72.20
55828;DHT22;41758;51.992;5.890;2023-11-21T07:26:00;13.50;72.10
55828;DHT22;41758;51.992;5.890;2023-11-21T07:28:25;13.50;71.90
55828;DHT22;41758;51.992;5.890;2023-11-21T07:30:51;13.60;72.00
55828;DHT22;41758;51.992;5.890;2023-11-21T07:33:18;13.60;71.90
55828;DHT22;41758;51.992;5.890;2023-11-21T07:35:43;13.50;71.90
55828;DHT22;41758;51.992;5.890;2023-11-21T07:38:09;13.60;72.00
55828;DHT22;41758;51.992;5.890;2023-11-21T07:40:35;13.60;72.10
55828;DHT22;41758;51.992;5.890;2023-11-21T07:43:01;13.60;72.00
55828;DHT22;41758;51.992;5.890;2023-11-21T07:45:27;13.60;72.10
55828;DHT22;41758;51.992;5.890;2023-11-21T07:47:54;13.60;72.00
55828;DHT22;41758;51.992;5.890;2023-11-21T07:50:21;13.60;72.00
55828;DHT22;41758;51.992;5.890;2023-11-21T07:52:48;13.60;72.00
55828;DHT22;41758;51.992;5.890;2023-11-21T07:55:16;13.60;72.20
55828;DHT22;41758;51.992;5.890;2023-11-21T07:57:41;13.70;72.20
55828;DHT22;41758;51.992;5.890;2023-11-21T08:00:07;13.70;72.20
55828;DHT22;41758;51.992;5.890;2023-11-21T08:02:39;13.80;72.10
55828;DHT22;41758;51.992;5.890;2023-11-21T08:05:08;13.80;72.10
55828;DHT22;41758;51.992;5.890;2023-11-21T08:07:34;13.80;72.20
55828;DHT22;41758;51.992;5.890;2023-11-21T08:09:59;13.80;72.20
55828;DHT22;41758;51.992;5.890;2023-11-21T08:12:25;13.90;72.20
55828;DHT22;41758;51.992;5.890;2023-11-21T08:14:53;13.90;72.20
55828;DHT22;41758;51.992;5.890;2023-11-21T08:17:19;14.00;72.10
55828;DHT22;41758;51.992;5.890;2023-11-21T08:19:46;14.00;72.10
55828;DHT22;41758;51.992;5.890;2023-11-21T08:22:15;14.10;72.10
55828;DHT22;41758;51.992;5.890;2023-11-21T08:24:43;14.10;72.10
55828;DHT22;41758;51.992;5.890;2023-11-21T08:27:09;14.20;72.10
55828;DHT22;41758;51.992;5.890;2023-11-21T08:29:35;14.20;72.10
55828;DHT22;41758;51.992;5.890;2023-11-21T08:32:02;14.30;72.10
55828;DHT22;41758;51.992;5.890;2023-11-21T08:34:28;14.30;72.10
55828;DHT22;41758;51.992;5.890;2023-11-21T08:36:54;14.40;72.00
55828;DHT22;41758;51.992;5.890;2023-11-21T08:39:21;14.40;72.00
55828;DHT22;41758;51.992;5.890;2023-11-21T08:41:50;14.40;72.00
55828;DHT22;41758;51.992;5.890;2023-11-21T08:44:19;14.40;72.00
55828;DHT22;41758;51.992;5.890;2023-11-21T08:46:44;14.50;72.00
55828;DHT22;41758;51.992;5.890;2023-11-21T08:49:12;14.50;72.00
55828;DHT22;41758;51.992;5.890;2023-11-21T08:51:38;14.60;72.00
55828;DHT22;41758;51.992;5.890;2023-11-21T08:54:04;14.60;72.00
55828;DHT22;41758;51.992;5.890;2023-11-21T08:56:36;14.70;72.00
55828;DHT22;41758;51.992;5.890;2023-11-21T08:59:01;14.70;72.00
55828;DHT22;41758;51.992;5.890;2023-11-21T09:01:29;14.70;72.00
55828;DHT22;41758;51.992;5.890;2023-11-21T09:03:57;14.80;72.00
55828;DHT22;41758;51.992;5.890;2023-11-21T09:06:23;14.80;72.00
55828;DHT22;41758;51.992;5.890;2023-11-21T09:08:50;14.80;71.90
55828;DHT22;41758;51.992;5.890;2023-11-21T09:11:15;14.90;71.90
55828;DHT22;41758;51.992;5.890;2023-11-21T09:13:41;14.90;71.90
55828;DHT22;41758;51.992;5.890;2023-11-21T09:16:07;14.90;71.90
55828;DHT22;41758;51.992;5.890;2023-11-21T09:18:33;14.90;71.80
55828;DHT22;41758;51.992;5.890;2023-11-21T09:20:58;14.90;71.80
55828;DHT22;41758;51.992;5.890;2023-11-21T09:23:24;15.00;71.70
55828;DHT22;41758;51.992;5.890;2023-11-21T09:25:50;14.90;71.60
55828;DHT22;41758;51.992;5.890;2023-11-21T09:28:17;15.00;71.60
55828;DHT22;41758;51.992;5.890;2023-11-21T09:30:43;14.90;71.50
55828;DHT22;41758;51.992;5.890;2023-11-21T09:33:09;15.00;71.50
55828;DHT22;41758;51.992;5.890;2023-11-21T09:35:39;15.00;71.60
55828;DHT22;41758;51.992;5.890;2023-11-21T09:38:04;15.00;71.60
55828;DHT22;41758;51.992;5.890;2023-11-21T09:40:35;15.00;71.60
55828;DHT22;41758;51.992;5.890;2023-11-21T09:43:14;15.10;71.60
55828;DHT22;41758;51.992;5.890;2023-11-21T09:45:52;15.10;71.70
55828;DHT22;41758;51.992;5.890;2023-11-21T09:48:20;15.10;71.70
55828;DHT22;41758;51.992;5.890;2023-11-21T09:50:47;15.20;71.70
55828;DHT22;41758;51.992;5.890;2023-11-21T09:53:13;15.20;71.70
55828;DHT22;41758;51.992;5.890;2023-11-21T09:55:46;15.30;71.70
55828;DHT22;41758;51.992;5.890;2023-11-21T09:58:13;15.30;71.70
55828;DHT22;41758;51.992;5.890;2023-11-21T10:00:46;15.20;71.80
55828;DHT22;41758;51.992;5.890;2023-11-21T10:03:13;15.30;71.90
55828;DHT22;41758;51.992;5.890;2023-11-21T10:05:41;15.30;72.00
55828;DHT22;41758;51.992;5.890;2023-11-21T10:08:11;15.40;72.20
55828;DHT22;41758;51.992;5.890;2023-11-21T10:10:38;15.60;72.40
55828;DHT22;41758;51.992;5.890;2023-11-21T10:13:12;15.70;72.40
55828;DHT22;41758;51.992;5.890;2023-11-21T10:15:42;15.80;72.40
55828;DHT22;41758;51.992;5.890;2023-11-21T10:18:14;15.80;72.30
55828;DHT22;41758;51.992;5.890;2023-11-21T10:20:41;15.90;72.20
55828;DHT22;41758;51.992;5.890;2023-11-21T10:23:08;15.90;72.10
55828;DHT22;41758;51.992;5.890;2023-11-21T10:25:37;16.00;72.00
55828;DHT22;41758;51.992;5.890;2023-11-21T10:28:03;16.00;71.90
55828;DHT22;41758;51.992;5.890;2023-11-21T10:30:34;16.00;71.80
55828;DHT22;41758;51.992;5.890;2023-11-21T10:33:06;16.00;71.70
55828;DHT22;41758;51.992;5.890;2023-11-21T10:35:47;16.00;71.70
55828;DHT22;41758;51.992;5.890;2023-11-21T10:38:19;16.00;71.70
55828;DHT22;41758;51.992;5.890;2023-11-21T10:40:46;16.00;71.70
55828;DHT22;41758;51.992;5.890;2023-11-21T10:43:13;16.10;71.80
55828;DHT22;41758;51.992;5.890;2023-11-21T10:45:40;16.10;71.80
55828;DHT22;41758;51.992;5.890;2023-11-21T10:48:11;16.10;71.80
55828;DHT22;41758;51.992;5.890;2023-11-21T10:50:38;16.10;71.70
55828;DHT22;41758;51.992;5.890;2023-11-21T10:53:05;16.10;71.60
55828;DHT22;41758;51.992;5.890;2023-11-21T10:55:31;16.10;71.40
55828;DHT22;41758;51.992;5.890;2023-11-21T10:57:59;16.00;71.20
55828;DHT22;41758;51.992;5.890;2023-11-21T11:00:28;15.90;71.20
55828;DHT22;41758;51.992;5.890;2023-11-21T11:02:54;15.90;71.30
55828;DHT22;41758;51.992;5.890;2023-11-21T11:05:30;15.90;71.40
55828;DHT22;41758;51.992;5.890;2023-11-21T11:10:29;15.90;71.50
55828;DHT22;41758;51.992;5.890;2023-11-21T11:12:56;15.90;71.40
55828;DHT22;41758;51.992;5.890;2023-11-21T11:15:27;15.90;71.40
55828;DHT22;41758;51.992;5.890;2023-11-21T11:17:54;15.80;71.30
55828;DHT22;41758;51.992;5.890;2023-11-21T11:20:34;15.80;71.20
55828;DHT22;41758;51.992;5.890;2023-11-21T11:26:17;15.60;71.20
55828;DHT22;41758;51.992;5.890;2023-11-21T11:29:11;15.60;71.30
55828;DHT22;41758;51.992;5.890;2023-11-21T11:34:39;15.50;71.50
55828;DHT22;41758;51.992;5.890;2023-11-21T11:37:07;15.60;71.70
55828;DHT22;41758;51.992;5.890;2023-11-21T11:39:42;15.50;71.90
55828;DHT22;41758;51.992;5.890;2023-11-21T11:42:12;15.60;71.90
55828;DHT22;41758;51.992;5.890;2023-11-21T11:47:15;15.60;71.90
55828;DHT22;41758;51.992;5.890;2023-11-21T11:50:00;15.60;71.80
55828;DHT22;41758;51.992;5.890;2023-11-21T11:52:39;15.60;71.70
55828;DHT22;41758;51.992;5.890;2023-11-21T11:55:10;15.60;71.80
55828;DHT22;41758;51.992;5.890;2023-11-21T11:57:37;15.60;71.90
55828;DHT22;41758;51.992;5.890;2023-11-21T12:02:44;15.80;72.30
55828;DHT22;41758;51.992;5.890;2023-11-21T12:05:16;15.80;72.30
55828;DHT22;41758;51.992;5.890;2023-11-21T12:07:54;15.90;72.40
55828;DHT22;41758;51.992;5.890;2023-11-21T12:10:22;16.00;72.30
55828;DHT22;41758;51.992;5.890;2023-11-21T12:12:51;16.00;72.10
55828;DHT22;41758;51.992;5.890;2023-11-21T12:15:19;16.00;71.80
55828;DHT22;41758;51.992;5.890;2023-11-21T12:17:45;16.00;71.50
55828;DHT22;41758;51.992;5.890;2023-11-21T12:20:12;15.90;71.30
55828;DHT22;41758;51.992;5.890;2023-11-21T12:22:50;15.90;71.40
55828;DHT22;41758;51.992;5.890;2023-11-21T12:25:18;15.80;71.30
55828;DHT22;41758;51.992;5.890;2023-11-21T12:27:48;15.80;71.30
55828;DHT22;41758;51.992;5.890;2023-11-21T12:30:21;15.70;71.30
55828;DHT22;41758;51.992;5.890;2023-11-21T12:32:52;15.70;71.30
55828;DHT22;41758;51.992;5.890;2023-11-21T12:35:19;15.70;71.50
55828;DHT22;41758;51.992;5.890;2023-11-21T12:37:45;15.70;71.60
55828;DHT22;41758;51.992;5.890;2023-11-21T12:40:13;15.60;71.50
55828;DHT22;41758;51.992;5.890;2023-11-21T12:42:53;15.60;71.60
55828;DHT22;41758;51.992;5.890;2023-11-21T12:45:23;15.50;71.60
55828;DHT22;41758;51.992;5.890;2023-11-21T12:47:55;15.50;71.80
55828;DHT22;41758;51.992;5.890;2023-11-21T12:50:25;15.60;71.90
55828;DHT22;41758;51.992;5.890;2023-11-21T12:53:03;15.50;71.80
55828;DHT22;41758;51.992;5.890;2023-11-21T12:55:31;15.50;71.70
55828;DHT22;41758;51.992;5.890;2023-11-21T12:57:59;15.50;71.70
55828;DHT22;41758;51.992;5.890;2023-11-21T13:00:33;15.50;71.80
55828;DHT22;41758;51.992;5.890;2023-11-21T13:03:04;15.60;71.90
55828;DHT22;41758;51.992;5.890;2023-11-21T13:05:30;15.50;71.80
55828;DHT22;41758;51.992;5.890;2023-11-21T13:08:02;15.60;71.80
55828;DHT22;41758;51.992;5.890;2023-11-21T13:10:30;15.60;71.80
55828;DHT22;41758;51.992;5.890;2023-11-21T13:13:01;15.60;71.70
55828;DHT22;41758;51.992;5.890;2023-11-21T13:15:31;15.60;71.70
55828;DHT22;41758;51.992;5.890;2023-11-21T13:17:58;15.60;71.50
55828;DHT22;41758;51.992;5.890;2023-11-21T13:20:27;15.60;71.30
55828;DHT22;41758;51.992;5.890;2023-11-21T13:22:57;15.50;71.40
55828;DHT22;41758;51.992;5.890;2023-11-21T13:25:28;15.50;71.40
55828;DHT22;41758;51.992;5.890;2023-11-21T13:27:54;15.50;71.50
55828;DHT22;41758;51.992;5.890;2023-11-21T13:30:21;15.50;71.50
55828;DHT22;41758;51.992;5.890;2023-11-21T13:32:53;15.50;71.70
55828;DHT22;41758;51.992;5.890;2023-11-21T13:35:26;15.50;71.80
55828;DHT22;41758;51.992;5.890;2023-11-21T13:38:16;15.50;71.90
55828;DHT22;41758;51.992;5.890;2023-11-21T13:40:47;15.60;71.90
55828;DHT22;41758;51.992;5.890;2023-11-21T13:43:15;15.60;72.00
55828;DHT22;41758;51.992;5.890;2023-11-21T13:45:43;15.60;72.00
55828;DHT22;41758;51.992;5.890;2023-11-21T13:48:10;15.70;72.00
55828;DHT22;41758;51.992;5.890;2023-11-21T13:50:36;15.70;71.80
55828;DHT22;41758;51.992;5.890;2023-11-21T13:53:03;15.80;71.80
55828;DHT22;41758;51.992;5.890;2023-11-21T13:55:36;15.80;71.70
55828;DHT22;41758;51.992;5.890;2023-11-21T13:58:03;15.80;71.70
55828;DHT22;41758;51.992;5.890;2023-11-21T14:00:30;15.80;71.60
55828;DHT22;41758;51.992;5.890;2023-11-21T14:03:07;15.80;71.60
55828;DHT22;41758;51.992;5.890;2023-11-21T14:05:43;15.70;71.40
55828;DHT22;41758;51.992;5.890;2023-11-21T14:08:10;15.70;71.30
55828;DHT22;41758;51.992;5.890;2023-11-21T14:10:37;15.60;71.20
55828;DHT22;41758;51.992;5.890;2023-11-21T14:13:11;15.50;71.00
55828;DHT22;41758;51.992;5.890;2023-11-21T14:15:39;15.40;71.00
55828;DHT22;41758;51.992;5.890;2023-11-21T14:18:11;15.30;71.00
55828;DHT22;41758;51.992;5.890;2023-11-21T14:20:38;15.30;71.10
55828;DHT22;41758;51.992;5.890;2023-11-21T14:23:05;15.30;71.20
55828;DHT22;41758;51.992;5.890;2023-11-21T14:25:36;15.20;71.20
55828;DHT22;41758;51.992;5.890;2023-11-21T14:28:03;15.20;71.10
55828;DHT22;41758;51.992;5.890;2023-11-21T14:30:29;15.10;71.20
55828;DHT22;41758;51.992;5.890;2023-11-21T14:32:58;15.00;71.20
55828;DHT22;41758;51.992;5.890;2023-11-21T14:35:24;15.10;71.30
55828;DHT22;41758;51.992;5.890;2023-11-21T14:37:50;15.00;71.40
55828;DHT22;41758;51.992;5.890;2023-11-21T14:40:16;15.10;71.40
55828;DHT22;41758;51.992;5.890;2023-11-21T14:42:47;15.00;71.30
55828;DHT22;41758;51.992;5.890;2023-11-21T14:45:13;15.00;71.20
55828;DHT22;41758;51.992;5.890;2023-11-21T14:47:41;15.00;71.30
55828;DHT22;41758;51.992;5.890;2023-11-21T14:50:12;14.90;71.30
55828;DHT22;41758;51.992;5.890;2023-11-21T14:53:04;14.90;71.40
55828;DHT22;41758;51.992;5.890;2023-11-21T14:55:35;14.90;71.40
55828;DHT22;41758;51.992;5.890;2023-11-21T14:58:18;14.90;71.40
55828;DHT22;41758;51.992;5.890;2023-11-21T15:00:57;14.90;71.30
55828;DHT22;41758;51.992;5.890;2023-11-21T15:03:27;14.90;71.40
55828;DHT22;41758;51.992;5.890;2023-11-21T15:05:57;14.90;71.30
55828;DHT22;41758;51.992;5.890;2023-11-21T15:08:23;14.80;71.30
55828;DHT22;41758;51.992;5.890;2023-11-21T15:10:55;14.80;71.10
55828;DHT22;41758;51.992;5.890;2023-11-21T15:13:21;14.70;71.10
55828;DHT22;41758;51.992;5.890;2023-11-21T15:15:49;14.70;71.10
55828;DHT22;41758;51.992;5.890;2023-11-21T15:18:14;14.70;71.20
55828;DHT22;41758;51.992;5.890;2023-11-21T15:20:40;14.60;71.20
55828;DHT22;41758;51.992;5.890;2023-11-21T15:23:07;14.60;71.10
55828;DHT22;41758;51.992;5.890;2023-11-21T15:25:34;14.60;71.10
55828;DHT22;41758;51.992;5.890;2023-11-21T15:28:04;14.50;71.10
55828;DHT22;41758;51.992;5.890;2023-11-21T15:30:31;14.40;71.00
55828;DHT22;41758;51.992;5.890;2023-11-21T15:33:00;14.40;70.90
55828;DHT22;41758;51.992;5.890;2023-11-21T15:35:26;14.40;70.90
55828;DHT22;41758;51.992;5.890;2023-11-21T15:37:54;14.30;70.80
55828;DHT22;41758;51.992;5.890;2023-11-21T15:40:23;14.30;70.80
55828;DHT22;41758;51.992;5.890;2023-11-21T15:42:49;14.20;70.90
55828;DHT22;41758;51.992;5.890;2023-11-21T15:45:15;14.20;70.90
55828;DHT22;41758;51.992;5.890;2023-11-21T15:47:44;14.20;70.90
55828;DHT22;41758;51.992;5.890;2023-11-21T15:50:10;14.10;70.90